Terminal Aerodrome Forecast
Issued by NWS Cleveland, OH

Home | Current Version | Previous Version | Text Only | Print | Product List | Glossary On
Versions: 1 2 3 4 5 6 7 8 9 10 11 12 13 14 15 16 17 18 19 20 21 22
000
FTUS41 KCLE 300103 AAA
TAFMFD
TAF AMD
KMFD 300103Z 3001/3024 04005KT P6SM VCSH SCT008 BKN080
      TEMPO 3002/3004 5SM -SHRA BKN007
     FM300400 08010KT 5SM BR OVC005
     FM301400 10012KT P6SM BKN012 OVC025
     FM302000 11010KT P6SM -SHRA BKN028=

USA.gov is the U.S. government's official web portal to all federal, state and local government web resources and services.